createdAt,value
2018-08-20T00:01:45.763Z,12.13
2018-08-20T00:04:14.922Z,10.90
2018-08-20T00:06:53.353Z,12.63
2018-08-20T00:09:31.990Z,12.80
2018-08-20T00:12:01.139Z,11.47
2018-08-20T00:14:30.532Z,11.57
2018-08-20T00:17:00.080Z,11.43
2018-08-20T00:19:29.252Z,14.30
2018-08-20T00:21:58.398Z,11.07
2018-08-20T00:24:27.727Z,10.80
2018-08-20T00:26:59.196Z,15.80
2018-08-20T00:29:28.376Z,13.33
2018-08-20T00:31:57.577Z,11.57
2018-08-20T00:34:26.776Z,14.43
2018-08-20T00:36:56.910Z,12.30
2018-08-20T00:39:26.188Z,12.80
2018-08-20T00:41:55.396Z,13.13
2018-08-20T00:44:24.487Z,12.33
2018-08-20T00:46:59.504Z,11.63
2018-08-20T00:49:28.634Z,12.60
2018-08-20T00:51:57.756Z,11.37
2018-08-20T00:54:26.881Z,10.33
2018-08-20T00:56:56.100Z,12.63
2018-08-20T00:59:25.285Z,12.90
2018-08-20T01:01:54.487Z,12.17
2018-08-20T01:04:23.592Z,11.93
2018-08-20T01:06:52.783Z,11.77
2018-08-20T01:09:21.877Z,11.87
2018-08-20T01:11:50.995Z,11.67
2018-08-20T01:14:20.160Z,12.20
2018-08-20T01:16:50.388Z,11.23
2018-08-20T01:19:19.630Z,12.37
2018-08-20T01:21:48.874Z,11.73
2018-08-20T01:24:18.038Z,12.23
2018-08-20T01:26:47.152Z,12.70
2018-08-20T01:29:16.364Z,14.30
2018-08-20T01:31:45.590Z,16.60
2018-08-20T01:34:14.788Z,15.13
2018-08-20T01:36:44.150Z,12.37
2018-08-20T01:39:13.347Z,12.20
2018-08-20T01:41:42.471Z,12.40
2018-08-20T01:44:11.672Z,13.03
2018-08-20T01:46:40.769Z,12.87
2018-08-20T01:49:09.983Z,13.67
2018-08-20T01:51:39.158Z,13.87
2018-08-20T01:54:08.277Z,14.83
2018-08-20T01:56:37.373Z,13.37
2018-08-20T01:59:06.540Z,12.90
2018-08-20T02:01:35.861Z,13.17
2018-08-20T02:04:05.067Z,12.50
2018-08-20T02:06:34.233Z,15.30
2018-08-20T02:09:03.820Z,17.30
2018-08-20T02:11:33.061Z,14.73
2018-08-20T02:14:02.164Z,13.37
2018-08-20T02:16:31.335Z,13.70
2018-08-20T02:19:00.536Z,14.40
2018-08-20T02:21:29.732Z,14.37
2018-08-20T02:23:59.082Z,12.83
2018-08-20T02:26:28.232Z,13.70
2018-08-20T02:28:57.341Z,13.07
2018-08-20T02:31:26.492Z,15.27
2018-08-20T02:33:55.645Z,14.53
2018-08-20T02:36:24.739Z,13.90
2018-08-20T02:38:53.949Z,14.17
2018-08-20T02:41:23.061Z,14.97
2018-08-20T02:43:52.203Z,15.03
2018-08-20T02:46:32.724Z,15.10
2018-08-20T02:49:01.856Z,15.27
2018-08-20T02:51:31.068Z,14.70
2018-08-20T02:54:00.232Z,15.03
2018-08-20T02:56:29.324Z,16.70
2018-08-20T02:58:58.461Z,20.07
2018-08-20T03:01:27.639Z,14.83
2018-08-20T03:03:56.861Z,15.43
2018-08-20T03:06:25.956Z,14.93
2018-08-20T03:08:55.146Z,14.37
2018-08-20T03:11:24.295Z,13.70
2018-08-20T03:13:53.577Z,14.97
2018-08-20T03:16:22.834Z,17.43
2018-08-20T03:18:51.961Z,14.00
2018-08-20T03:21:21.138Z,14.90
2018-08-20T03:23:50.333Z,17.50
2018-08-20T03:26:19.440Z,15.57
2018-08-20T03:28:48.640Z,16.13
2018-08-20T03:31:17.833Z,14.60
2018-08-20T03:33:46.959Z,15.00
2018-08-20T03:36:16.199Z,15.10
2018-08-20T03:38:45.289Z,14.80
2018-08-20T03:41:14.436Z,16.27
2018-08-20T03:43:44.585Z,15.97
2018-08-20T03:46:13.709Z,18.00
2018-08-20T03:48:42.812Z,16.40
2018-08-20T03:51:12.121Z,14.77
2018-08-20T03:53:41.534Z,14.70
2018-08-20T03:56:10.798Z,16.80
2018-08-20T03:58:39.912Z,17.37
2018-08-20T04:01:09.112Z,15.90
2018-08-20T04:03:38.452Z,13.53
2018-08-20T04:06:07.600Z,17.90
2018-08-20T04:08:36.725Z,14.97
2018-08-20T04:11:05.900Z,15.07
2018-08-20T04:13:35.107Z,14.23
2018-08-20T04:16:04.308Z,15.47
2018-08-20T04:18:33.563Z,14.17
2018-08-20T04:21:02.804Z,18.10
2018-08-20T04:23:32.016Z,15.90
2018-08-20T04:26:01.276Z,16.07
2018-08-20T04:28:30.375Z,16.53
2018-08-20T04:30:59.596Z,15.70
2018-08-20T04:33:28.775Z,16.17
2018-08-20T04:35:57.990Z,17.90
2018-08-20T04:38:27.108Z,15.17
2018-08-20T04:40:56.183Z,20.90
2018-08-20T04:43:25.549Z,14.70
2018-08-20T04:45:54.663Z,14.33
2018-08-20T04:48:23.853Z,14.87
2018-08-20T04:50:53.101Z,15.17
2018-08-20T04:53:22.209Z,15.43
2018-08-20T04:55:51.401Z,15.80
2018-08-20T04:58:20.557Z,15.37
2018-08-20T05:00:49.750Z,16.60
2018-08-20T05:03:18.845Z,16.13
2018-08-20T05:05:48.030Z,16.50
2018-08-20T05:08:17.249Z,16.00
2018-08-20T05:10:46.357Z,17.73
2018-08-20T05:13:15.488Z,15.20
2018-08-20T05:15:44.712Z,14.97
2018-08-20T05:18:13.789Z,14.77
2018-08-20T05:20:42.900Z,17.40
2018-08-20T05:23:12.128Z,15.20
2018-08-20T05:25:41.228Z,15.90
2018-08-20T05:28:10.406Z,15.90
2018-08-20T05:30:39.619Z,16.50
2018-08-20T05:33:08.768Z,16.40
2018-08-20T05:35:37.890Z,18.90
2018-08-20T05:38:07.180Z,16.20
2018-08-20T05:40:36.377Z,15.53
2018-08-20T05:43:05.486Z,16.43
2018-08-20T05:45:34.680Z,14.17
2018-08-20T05:48:03.794Z,17.47
2018-08-20T05:50:33.005Z,15.37
2018-08-20T05:53:02.204Z,16.90
2018-08-20T05:55:31.900Z,19.37
2018-08-20T05:58:01.071Z,14.23
2018-08-20T06:00:30.405Z,25.97
2018-08-20T06:02:59.525Z,15.80
2018-08-20T06:05:28.628Z,24.97
2018-08-20T06:07:57.810Z,15.00
2018-08-20T06:10:27.062Z,17.23
2018-08-20T06:12:56.253Z,14.07
2018-08-20T06:15:25.361Z,13.30
2018-08-20T06:17:54.767Z,13.37
2018-08-20T06:20:23.971Z,15.33
2018-08-20T06:22:53.190Z,13.80
2018-08-20T06:25:22.447Z,12.77
2018-08-20T06:27:51.549Z,13.23
2018-08-20T06:30:20.777Z,12.57
2018-08-20T06:32:49.969Z,13.97
2018-08-20T06:35:19.061Z,13.30
2018-08-20T06:37:48.168Z,12.70
2018-08-20T06:40:17.428Z,21.00
2018-08-20T06:42:46.615Z,14.23
2018-08-20T06:45:16.910Z,11.13
2018-08-20T06:47:46.937Z,12.93
2018-08-20T06:50:16.413Z,10.50
2018-08-20T06:52:46.261Z,13.63
2018-08-20T06:55:16.277Z,13.17
2018-08-20T06:57:46.423Z,14.43
2018-08-20T07:00:16.082Z,11.77
2018-08-20T07:02:45.314Z,10.93
2018-08-20T07:05:14.563Z,11.37
2018-08-20T07:07:43.713Z,15.90
2018-08-20T07:10:13.745Z,9.90
2018-08-20T07:12:43.174Z,9.80
2018-08-20T07:15:14.165Z,14.13
2018-08-20T07:17:43.654Z,10.10
2018-08-20T07:20:14.357Z,10.13
2018-08-20T07:22:43.921Z,11.87
2018-08-20T07:25:13.122Z,10.33
2018-08-20T07:27:42.343Z,8.33
2018-08-20T07:30:12.125Z,10.60
2018-08-20T07:32:41.240Z,8.97
2018-08-20T07:35:10.361Z,8.00
2018-08-20T07:37:39.468Z,8.80
2018-08-20T07:40:08.838Z,15.40
2018-08-20T07:42:37.942Z,9.23
2018-08-20T07:45:07.065Z,9.10
2018-08-20T07:47:36.216Z,10.33
2018-08-20T07:50:05.613Z,7.27
2018-08-20T07:52:34.758Z,12.80
2018-08-20T07:55:03.921Z,9.90
2018-08-20T07:57:33.104Z,6.50
2018-08-20T08:00:02.236Z,9.00
2018-08-20T08:02:31.399Z,6.73
2018-08-20T08:05:00.645Z,12.40
2018-08-20T08:07:29.816Z,10.10
2018-08-20T08:09:58.928Z,8.10
2018-08-20T08:12:28.100Z,6.63
2018-08-20T08:14:57.231Z,12.73
2018-08-20T08:17:26.380Z,7.90
2018-08-20T08:19:55.488Z,8.40
2018-08-20T08:22:24.712Z,8.13
2018-08-20T08:24:54.020Z,7.57
2018-08-20T08:27:23.199Z,14.33
2018-08-20T08:29:52.394Z,6.10
2018-08-20T08:32:21.665Z,6.17
2018-08-20T08:34:50.728Z,7.07
2018-08-20T08:37:20.902Z,9.23
2018-08-20T08:39:50.090Z,9.47
2018-08-20T08:42:19.288Z,7.40
2018-08-20T08:44:48.381Z,6.63
2018-08-20T08:47:17.507Z,6.17
2018-08-20T08:49:46.670Z,5.40
2018-08-20T08:52:15.729Z,7.67
2018-08-20T08:54:44.869Z,6.47
2018-08-20T08:57:14.057Z,10.60
2018-08-20T08:59:43.243Z,6.93
2018-08-20T09:02:12.463Z,9.20
2018-08-20T09:04:41.667Z,6.67
2018-08-20T09:07:10.823Z,6.20
2018-08-20T09:09:39.984Z,10.90
2018-08-20T09:12:09.128Z,6.63
2018-08-20T09:14:38.277Z,6.53
2018-08-20T09:17:07.407Z,6.83
2018-08-20T09:19:36.585Z,8.83
2018-08-20T09:22:06.031Z,15.63
2018-08-20T09:24:35.101Z,5.80
2018-08-20T09:27:04.455Z,6.60
2018-08-20T09:29:33.533Z,6.73
2018-08-20T09:32:02.721Z,8.23
2018-08-20T09:34:31.813Z,6.07
2018-08-20T09:37:01.059Z,6.50
2018-08-20T09:39:30.164Z,10.40
2018-08-20T09:41:59.237Z,9.77
2018-08-20T09:44:28.412Z,12.63
2018-08-20T09:46:57.498Z,7.97
2018-08-20T09:49:26.606Z,6.40
2018-08-20T09:51:55.776Z,10.20
2018-08-20T09:54:24.885Z,5.73
2018-08-20T09:56:54.088Z,5.43
2018-08-20T09:59:23.188Z,5.43
2018-08-20T10:01:52.376Z,5.43
2018-08-20T10:04:21.468Z,9.30
2018-08-20T10:06:50.675Z,4.83
2018-08-20T10:09:19.786Z,6.43
2018-08-20T10:11:48.872Z,9.17
2018-08-20T10:14:17.967Z,5.60
2018-08-20T10:16:47.162Z,6.83
2018-08-20T10:19:16.438Z,8.00
2018-08-20T10:21:45.673Z,5.97
2018-08-20T10:24:14.843Z,5.50
2018-08-20T10:26:44.072Z,6.83
2018-08-20T10:29:13.239Z,6.00
2018-08-20T10:31:42.426Z,8.33
2018-08-20T10:34:11.590Z,10.77
2018-08-20T10:36:41.027Z,6.37
2018-08-20T10:39:11.509Z,6.60
2018-08-20T10:41:41.136Z,6.03
2018-08-20T10:44:11.300Z,16.63
2018-08-20T10:46:40.393Z,8.70
2018-08-20T10:49:09.534Z,5.43
2018-08-20T10:51:38.657Z,8.60
2018-08-20T10:54:07.842Z,5.33
2018-08-20T10:56:36.943Z,6.20
2018-08-20T10:59:06.101Z,9.00
2018-08-20T11:01:35.331Z,5.10
2018-08-20T11:04:05.657Z,7.43
2018-08-20T11:06:34.821Z,7.10
2018-08-20T11:09:04.359Z,7.53
2018-08-20T11:11:33.508Z,7.07
2018-08-20T11:14:02.612Z,7.50
2018-08-20T11:16:31.772Z,10.00
2018-08-20T11:19:00.987Z,7.27
2018-08-20T11:21:30.076Z,8.83
2018-08-20T11:23:59.247Z,5.67
2018-08-20T11:26:28.490Z,5.00
2018-08-20T11:28:57.679Z,5.27
2018-08-20T11:31:26.890Z,8.50
2018-08-20T11:33:56.050Z,12.33
2018-08-20T11:36:25.186Z,5.33
2018-08-20T11:38:54.345Z,6.17
2018-08-20T11:41:23.505Z,5.53
2018-08-20T11:43:52.761Z,6.90
2018-08-20T11:46:21.973Z,7.70
2018-08-20T11:48:51.185Z,7.50
2018-08-20T11:51:20.365Z,20.37
2018-08-20T11:53:49.556Z,8.57
2018-08-20T11:56:18.828Z,6.90
2018-08-20T11:58:47.918Z,4.83
2018-08-20T12:01:17.081Z,5.20
2018-08-20T12:03:50.420Z,5.70
2018-08-20T12:06:19.577Z,4.80
2018-08-20T12:08:48.703Z,6.50
2018-08-20T12:11:18.008Z,5.67
2018-08-20T12:13:47.144Z,5.20
2018-08-20T12:16:16.364Z,7.93
2018-08-20T12:18:45.483Z,5.40
2018-08-20T12:21:14.798Z,8.30
2018-08-20T12:23:43.912Z,9.70
2018-08-20T12:26:13.078Z,4.93
2018-08-20T12:28:42.167Z,5.27
2018-08-20T12:31:11.327Z,5.97
2018-08-20T12:33:40.504Z,9.38
2018-08-20T12:36:09.641Z,4.80
2018-08-20T12:38:38.779Z,5.42
2018-08-20T12:41:07.885Z,5.10
2018-08-20T12:43:37.064Z,5.12
2018-08-20T12:46:06.278Z,4.90
2018-08-20T12:48:35.468Z,5.25
2018-08-20T12:51:04.613Z,5.25
2018-08-20T12:53:33.767Z,5.45
2018-08-20T12:56:02.950Z,12.30
2018-08-20T12:58:32.020Z,7.78
2018-08-20T13:01:01.432Z,8.43
2018-08-20T13:03:30.378Z,5.42
2018-08-20T13:05:59.509Z,12.55
2018-08-20T13:08:28.666Z,4.80
2018-08-20T13:10:57.860Z,10.48
2018-08-20T13:13:26.935Z,5.05
2018-08-20T13:15:56.170Z,9.43
2018-08-20T13:18:25.189Z,4.30
2018-08-20T13:20:54.425Z,6.62
2018-08-20T13:23:23.621Z,5.78
2018-08-20T13:25:52.777Z,8.93
2018-08-20T13:28:21.921Z,9.28
2018-08-20T13:30:51.005Z,4.33
2018-08-20T13:33:20.268Z,4.87
2018-08-20T13:35:49.921Z,5.12
2018-08-20T13:38:19.048Z,7.33
2018-08-20T13:40:48.144Z,4.72
2018-08-20T13:43:17.272Z,4.72
2018-08-20T13:45:46.422Z,4.45
2018-08-20T13:48:16.012Z,5.10
2018-08-20T13:50:45.197Z,4.53
2018-08-20T13:53:14.272Z,4.75
2018-08-20T13:55:43.521Z,5.05
2018-08-20T13:58:12.699Z,5.85
2018-08-20T14:00:41.802Z,3.95
2018-08-20T14:03:11.036Z,4.50
2018-08-20T14:05:40.197Z,4.62
2018-08-20T14:08:09.378Z,7.37
2018-08-20T14:10:38.484Z,5.17
2018-08-20T14:13:07.792Z,4.87
2018-08-20T14:15:37.118Z,4.37
2018-08-20T14:18:06.580Z,4.03
2018-08-20T14:20:35.710Z,4.90
2018-08-20T14:23:04.957Z,4.47
2018-08-20T14:25:34.027Z,5.67
2018-08-20T14:28:03.138Z,4.72
2018-08-20T14:30:32.289Z,4.75
2018-08-20T14:33:01.469Z,4.47
2018-08-20T14:35:30.555Z,8.73
2018-08-20T14:37:59.693Z,4.40
2018-08-20T14:40:28.855Z,8.13
2018-08-20T14:42:58.048Z,6.08
2018-08-20T14:45:31.377Z,4.78
2018-08-20T14:48:00.570Z,4.00
2018-08-20T14:50:29.803Z,4.05
2018-08-20T14:52:59.226Z,4.08
2018-08-20T14:55:28.307Z,4.75
2018-08-20T14:57:57.494Z,5.28
2018-08-20T15:00:26.641Z,4.05
2018-08-20T15:02:55.765Z,5.33
2018-08-20T15:05:24.909Z,13.62
2018-08-20T15:07:54.125Z,4.67
2018-08-20T15:10:23.237Z,8.80
2018-08-20T15:12:52.449Z,5.17
2018-08-20T15:15:21.718Z,5.92
2018-08-20T15:17:50.815Z,5.62
2018-08-20T15:20:19.889Z,4.47
2018-08-20T15:22:49.141Z,4.42
2018-08-20T15:25:18.315Z,6.80
2018-08-20T15:27:47.442Z,4.37
2018-08-20T15:30:16.680Z,4.10
2018-08-20T15:32:45.898Z,7.30
2018-08-20T15:35:14.986Z,4.72
2018-08-20T15:37:44.292Z,4.58
2018-08-20T15:40:13.732Z,3.80
2018-08-20T15:42:42.829Z,4.83
2018-08-20T15:45:11.980Z,4.85
2018-08-20T15:47:41.173Z,4.25
2018-08-20T15:50:10.237Z,6.87
2018-08-20T15:52:39.353Z,5.53
2018-08-20T15:55:08.416Z,3.90
2018-08-20T15:57:37.556Z,5.97
2018-08-20T16:00:08.044Z,4.80
2018-08-20T16:02:37.474Z,8.83
2018-08-20T16:05:06.904Z,4.05
2018-08-20T16:07:36.088Z,4.22
2018-08-20T16:10:07.049Z,4.28
2018-08-20T16:12:36.406Z,3.58
2018-08-20T16:15:06.032Z,4.15
2018-08-20T16:17:35.480Z,6.05
2018-08-20T16:20:04.624Z,4.70
2018-08-20T16:22:33.870Z,4.00
2018-08-20T16:25:03.109Z,4.20
2018-08-20T16:27:32.276Z,4.50
2018-08-20T16:30:01.718Z,4.87
2018-08-20T16:32:30.846Z,6.35
2018-08-20T16:34:59.918Z,4.45
2018-08-20T16:37:29.132Z,7.95
2018-08-20T16:39:58.239Z,4.12
2018-08-20T16:42:27.419Z,6.12
2018-08-20T16:44:56.547Z,4.33
2018-08-20T16:47:25.645Z,5.20
2018-08-20T16:49:54.727Z,4.35
2018-08-20T16:52:23.864Z,5.05
2018-08-20T16:54:53.080Z,4.70
2018-08-20T16:57:22.198Z,5.58
2018-08-20T16:59:51.307Z,6.85
2018-08-20T17:02:28.534Z,5.30
2018-08-20T17:04:57.704Z,4.37
2018-08-20T17:07:26.805Z,11.60
2018-08-20T17:09:55.896Z,6.30
2018-08-20T17:12:25.084Z,7.25
2018-08-20T17:14:54.186Z,4.70
2018-08-20T17:17:23.435Z,8.10
2018-08-20T17:19:52.680Z,6.28
2018-08-20T17:22:21.964Z,6.62
2018-08-20T17:24:54.538Z,5.12
2018-08-20T17:27:23.792Z,5.70
2018-08-20T17:29:54.779Z,6.20
2018-08-20T17:32:23.900Z,6.45
2018-08-20T17:34:52.992Z,5.03
2018-08-20T17:37:22.268Z,14.83
2018-08-20T17:40:11.833Z,6.40
2018-08-20T17:42:41.861Z,12.18
2018-08-20T17:45:10.980Z,8.90
2018-08-20T17:47:40.813Z,6.20
2018-08-20T17:50:26.156Z,10.03
2018-08-20T17:52:55.299Z,6.73
2018-08-20T17:55:24.420Z,6.63
2018-08-20T17:57:53.523Z,5.93
2018-08-20T18:00:27.170Z,6.03
2018-08-20T18:02:56.300Z,7.70
2018-08-20T18:05:25.861Z,9.47
2018-08-20T18:07:55.308Z,9.17
2018-08-20T18:10:24.400Z,7.73
2018-08-20T18:12:53.502Z,6.97
2018-08-20T18:15:22.582Z,5.20
2018-08-20T18:17:51.709Z,6.03
2018-08-20T18:20:20.888Z,8.43
2018-08-20T18:22:50.102Z,8.40
2018-08-20T18:25:19.213Z,10.80
2018-08-20T18:27:48.405Z,9.73
2018-08-20T18:30:17.812Z,5.57
2018-08-20T18:32:47.032Z,6.10
2018-08-20T18:35:22.780Z,13.60
2018-08-20T18:37:52.641Z,10.03
2018-08-20T18:40:21.763Z,7.60
2018-08-20T18:42:51.044Z,10.80
2018-08-20T18:45:20.259Z,7.33
2018-08-20T18:47:49.368Z,15.23
2018-08-20T18:50:18.570Z,9.93
2018-08-20T18:52:47.692Z,9.10
2018-08-20T18:55:16.832Z,8.50
2018-08-20T18:57:46.036Z,9.20
2018-08-20T19:00:15.718Z,6.80
2018-08-20T19:02:50.525Z,10.60
2018-08-20T19:05:20.296Z,11.07
2018-08-20T19:07:49.495Z,10.57
2018-08-20T19:10:27.744Z,8.80
2018-08-20T19:12:56.979Z,6.80
2018-08-20T19:15:36.512Z,13.67
2018-08-20T19:18:07.447Z,8.90
2018-08-20T19:20:36.683Z,7.70
2018-08-20T19:23:05.868Z,10.53
2018-08-20T19:25:36.016Z,8.00
2018-08-20T19:28:10.728Z,7.97
2018-08-20T19:30:40.001Z,12.53
2018-08-20T19:33:14.854Z,7.07
2018-08-20T19:35:44.045Z,10.27
2018-08-20T19:38:13.257Z,9.00
2018-08-20T19:40:42.485Z,11.47
2018-08-20T19:43:11.621Z,8.70
2018-08-20T19:45:43.937Z,14.30
2018-08-20T19:48:13.886Z,8.77
2018-08-20T19:50:43.038Z,11.70
2018-08-20T19:53:22.521Z,10.43
2018-08-20T19:55:51.948Z,12.87
2018-08-20T19:58:26.407Z,12.83
2018-08-20T20:01:07.746Z,11.90
2018-08-20T20:03:36.860Z,10.40
2018-08-20T20:06:06.015Z,11.47
2018-08-20T20:08:35.117Z,10.03
2018-08-20T20:11:04.300Z,11.67
2018-08-20T20:13:33.464Z,11.00
2018-08-20T20:16:02.573Z,13.60
2018-08-20T20:18:32.161Z,13.30
2018-08-20T20:21:01.337Z,9.23
2018-08-20T20:23:30.548Z,10.93
2018-08-20T20:25:59.761Z,10.70
2018-08-20T20:28:28.868Z,9.97
2018-08-20T20:30:57.969Z,10.73
2018-08-20T20:33:27.432Z,10.43
2018-08-20T20:35:56.632Z,12.53
2018-08-20T20:38:25.863Z,11.40
2018-08-20T20:40:55.007Z,13.73
2018-08-20T20:43:28.286Z,8.90
2018-08-20T20:45:57.521Z,11.40
2018-08-20T20:48:26.724Z,10.50
2018-08-20T20:50:55.901Z,11.10
2018-08-20T20:53:25.237Z,10.73
2018-08-20T20:55:55.077Z,10.20
2018-08-20T20:58:31.251Z,9.27
2018-08-20T21:01:01.528Z,11.30
2018-08-20T21:03:30.632Z,8.67
2018-08-20T21:05:59.902Z,9.67
2018-08-20T21:08:37.205Z,7.70
2018-08-20T21:11:06.320Z,9.40
2018-08-20T21:13:35.384Z,10.23
2018-08-20T21:16:09.637Z,10.40
2018-08-20T21:18:51.474Z,11.00
2018-08-20T21:21:21.125Z,7.43
2018-08-20T21:23:50.313Z,9.80
2018-08-20T21:26:19.428Z,9.33
2018-08-20T21:28:49.661Z,16.00
2018-08-20T21:31:21.141Z,9.37
2018-08-20T21:33:58.168Z,10.97
2018-08-20T21:36:27.276Z,11.47
2018-08-20T21:38:56.508Z,10.00
2018-08-20T21:41:27.734Z,11.27
2018-08-20T21:43:56.993Z,10.73
2018-08-20T21:46:26.213Z,10.07
2018-08-20T21:48:55.366Z,9.20
2018-08-20T21:51:30.605Z,13.13
2018-08-20T21:53:59.745Z,15.40
2018-08-20T21:56:40.157Z,17.77
2018-08-20T21:59:09.564Z,13.80
2018-08-20T22:01:38.788Z,10.40
2018-08-20T22:04:13.099Z,10.60
2018-08-20T22:06:42.310Z,12.37
2018-08-20T22:09:11.513Z,15.10
2018-08-20T22:11:40.802Z,9.17
2018-08-20T22:14:10.009Z,14.17
2018-08-20T22:16:39.181Z,9.00
2018-08-20T22:19:08.297Z,9.90
2018-08-20T22:21:37.472Z,17.17
2018-08-20T22:24:06.673Z,12.83
2018-08-20T22:26:39.368Z,16.20
2018-08-20T22:29:08.553Z,16.53
2018-08-20T22:31:38.837Z,13.90
2018-08-20T22:34:07.959Z,14.80
2018-08-20T22:36:37.153Z,10.40
2018-08-20T22:39:08.533Z,12.67
2018-08-20T22:41:37.651Z,12.00
2018-08-20T22:44:06.780Z,13.63
2018-08-20T22:46:35.943Z,13.33
2018-08-20T22:49:05.059Z,14.00
2018-08-20T22:51:34.309Z,11.23
2018-08-20T22:54:03.421Z,21.53
2018-08-20T22:56:34.344Z,14.60
2018-08-20T22:59:04.993Z,12.60
2018-08-20T23:01:34.169Z,19.60
2018-08-20T23:04:03.349Z,12.43
2018-08-20T23:06:32.569Z,16.73
2018-08-20T23:09:18.454Z,13.43
2018-08-20T23:11:47.663Z,16.27
2018-08-20T23:14:16.851Z,11.93
2018-08-20T23:16:49.204Z,14.97
2018-08-20T23:19:18.391Z,14.60
2018-08-20T23:21:48.265Z,14.37
2018-08-20T23:24:17.927Z,10.87
2018-08-20T23:26:47.023Z,10.17
2018-08-20T23:29:16.218Z,14.83
2018-08-20T23:31:45.427Z,13.60
2018-08-20T23:34:15.476Z,11.40
2018-08-20T23:36:44.687Z,10.47
2018-08-20T23:39:16.125Z,13.67
2018-08-20T23:41:45.271Z,15.80
2018-08-20T23:44:15.798Z,10.23
2018-08-20T23:46:49.728Z,14.00
2018-08-20T23:49:18.886Z,19.50
2018-08-20T23:51:47.994Z,16.73
2018-08-20T23:54:17.106Z,12.73
2018-08-20T23:56:46.308Z,17.73
2018-08-20T23:59:15.436Z,19.40
